Huvudsida
METAR-TAF:

METAR-TAF

Flygplatser :

Acapulco, Mexiko

latitud: 16-46N, longitud: 099-45W, höjd: 5 m

Aktuellt väderrapport

Denna rapport gjordes för 1 timme och 8 minuter sedan, klockan 07:47 UTC
Stilla vind
Temperatur 24°C
Fuktighet 89%
Tryck 1015 hPa
Sikt: 11.3 km
Klar himmel

METAR: MMAA 160747Z 00000KT 7SM SKC 24/22 A2996 RMK HZY

Tid: 02:55 (08:55 UTC)

Väderprognos

Denna rapport gjordes för 3 timmar och 47 minuter sedan, klockan 05:08 UTC
Prognos gäller från 16 kl. 06 UTC till 17 kl. 12 UTC
Vind 5 kt från nord
Sikt: 10 km
Spridda moln på en höjd av 30000 ft
Från 16 kl. 1600 UTC
Vind 10 kt från sydväst
Sikt: 10 km
Spridda moln på en höjd av 1500 ft
Spridda moln på en höjd av 30000 ft
Från 17 kl. 0200 UTC
Vind 5 kt från nord/nordost
Sikt: 10 km
Spridda moln på en höjd av 30000 ft

TAF: MMAA 160508Z 1606/1712 36005KT P6SM SCT300 TX30/1618Z TN23/1612Z FM161600 23010KT P6SM SCT015 SCT300 FM170200 03005KT P6SM SCT300

Aktuella väderrapporter och prognoser från 4000 flygplatser (METAR- och TAF-rapporter).

De tillgängliga stationerna syns som gula och röda prickar på kartan.

För musen över prickarna för att se namnen på stationerna.

Klicka sedan för att få väderrapporter och prognoser.

För att ändra kartan: Klicka på de gröna knapparna med ett svart kors på för att zooma in; den gröna knappen med ett streck på för att zooma ut; eller på de gröna pilarna för angränsande kartor.


METAR-TAF: